createdAt,value
2018-05-15T00:02:00.012Z,17.73
2018-05-15T00:04:27.533Z,12.30
2018-05-15T00:06:54.990Z,17.30
2018-05-15T00:09:22.431Z,13.43
2018-05-15T00:11:49.782Z,17.47
2018-05-15T00:14:17.130Z,17.37
2018-05-15T00:16:44.526Z,15.40
2018-05-15T00:19:11.907Z,14.10
2018-05-15T00:21:39.331Z,18.77
2018-05-15T00:24:06.752Z,15.73
2018-05-15T00:26:34.139Z,24.90
2018-05-15T00:29:01.554Z,15.23
2018-05-15T00:31:28.943Z,15.10
2018-05-15T00:33:56.360Z,16.30
2018-05-15T00:36:23.732Z,16.50
2018-05-15T00:38:51.160Z,19.00
2018-05-15T00:41:18.518Z,16.93
2018-05-15T00:43:45.997Z,16.63
2018-05-15T00:46:13.399Z,18.10
2018-05-15T00:48:40.819Z,21.30
2018-05-15T00:51:08.212Z,15.20
2018-05-15T00:53:35.721Z,15.83
2018-05-15T00:56:03.138Z,17.03
2018-05-15T00:58:30.495Z,16.50
2018-05-15T01:00:57.858Z,17.63
2018-05-15T01:03:25.244Z,17.40
2018-05-15T01:05:52.667Z,18.57
2018-05-15T01:08:20.062Z,17.87
2018-05-15T01:10:47.483Z,15.83
2018-05-15T01:13:14.875Z,18.17
2018-05-15T01:15:42.264Z,16.83
2018-05-15T01:18:09.644Z,14.37
2018-05-15T01:20:37.000Z,19.90
2018-05-15T01:23:04.404Z,17.07
2018-05-15T01:25:31.798Z,17.10
2018-05-15T01:27:59.200Z,18.07
2018-05-15T01:30:26.566Z,19.53
2018-05-15T01:32:53.928Z,18.03
2018-05-15T01:35:21.392Z,22.70
2018-05-15T01:37:48.927Z,16.20
2018-05-15T01:40:16.282Z,22.17
2018-05-15T01:42:43.693Z,16.40
2018-05-15T01:45:11.075Z,19.60
2018-05-15T01:47:38.439Z,16.97
2018-05-15T01:50:05.843Z,18.37
2018-05-15T01:52:33.190Z,21.17
2018-05-15T01:55:00.568Z,16.53
2018-05-15T01:57:27.996Z,22.23
2018-05-15T01:59:55.415Z,24.30
2018-05-15T02:02:22.784Z,16.47
2018-05-15T02:04:50.154Z,18.63
2018-05-15T02:07:17.499Z,20.50
2018-05-15T02:09:44.942Z,20.93
2018-05-15T02:12:12.348Z,20.43
2018-05-15T02:14:39.745Z,18.30
2018-05-15T02:17:07.215Z,16.73
2018-05-15T02:19:34.672Z,19.10
2018-05-15T02:22:02.129Z,19.13
2018-05-15T02:24:29.571Z,16.97
2018-05-15T02:26:56.959Z,19.13
2018-05-15T02:29:24.372Z,21.73
2018-05-15T02:31:51.752Z,20.83
2018-05-15T02:34:19.143Z,16.93
2018-05-15T02:36:46.556Z,21.23
2018-05-15T02:39:13.961Z,20.30
2018-05-15T02:41:41.379Z,17.77
2018-05-15T02:44:08.768Z,21.70
2018-05-15T02:46:36.211Z,19.83
2018-05-15T02:49:03.570Z,20.57
2018-05-15T02:51:30.955Z,18.87
2018-05-15T02:53:58.338Z,23.13
2018-05-15T02:56:25.724Z,17.73
2018-05-15T02:58:53.122Z,16.20
2018-05-15T03:01:20.495Z,16.60
2018-05-15T03:03:47.871Z,19.80
2018-05-15T03:06:15.225Z,16.70
2018-05-15T03:08:42.614Z,18.43
2018-05-15T03:11:10.028Z,18.70
2018-05-15T03:13:37.407Z,19.13
2018-05-15T03:16:04.783Z,16.43
2018-05-15T03:18:32.172Z,17.60
2018-05-15T03:20:59.576Z,17.67
2018-05-15T03:23:26.965Z,21.53
2018-05-15T03:25:54.318Z,18.87
2018-05-15T03:28:21.743Z,17.67
2018-05-15T03:30:49.187Z,20.60
2018-05-15T03:33:16.545Z,22.23
2018-05-15T03:35:43.956Z,20.93
2018-05-15T03:38:11.305Z,22.10
2018-05-15T03:40:38.702Z,20.90
2018-05-15T03:43:06.091Z,25.33
2018-05-15T03:45:33.437Z,26.30
2018-05-15T03:48:00.824Z,19.83
2018-05-15T03:50:28.204Z,18.50
2018-05-15T03:52:55.583Z,17.63
2018-05-15T03:55:22.957Z,17.63
2018-05-15T03:57:50.364Z,17.57
2018-05-15T04:00:23.662Z,20.40
2018-05-15T04:02:56.864Z,19.20
2018-05-15T04:05:30.075Z,21.90
2018-05-15T04:07:59.395Z,18.70
2018-05-15T04:10:26.745Z,16.27
2018-05-15T04:12:54.129Z,19.27
2018-05-15T04:15:21.567Z,21.40
2018-05-15T04:17:48.931Z,20.90
2018-05-15T04:20:16.332Z,17.87
2018-05-15T04:22:43.714Z,17.30
2018-05-15T04:25:11.104Z,17.97
2018-05-15T04:27:38.486Z,18.63
2018-05-15T04:30:05.868Z,19.87
2018-05-15T04:32:33.297Z,17.47
2018-05-15T04:35:00.756Z,18.43
2018-05-15T04:37:28.174Z,22.67
2018-05-15T04:39:55.618Z,21.10
2018-05-15T04:42:22.975Z,22.23
2018-05-15T04:44:50.399Z,19.57
2018-05-15T04:47:17.782Z,22.80
2018-05-15T04:49:45.289Z,22.00
2018-05-15T04:52:12.670Z,22.20
2018-05-15T04:54:40.125Z,20.10
2018-05-15T04:57:07.414Z,22.43
2018-05-15T04:59:34.823Z,25.23
2018-05-15T05:02:02.358Z,20.83
2018-05-15T05:04:30.068Z,18.27
2018-05-15T05:06:57.738Z,20.33
2018-05-15T05:09:26.163Z,19.40
2018-05-15T05:11:53.753Z,22.07
2018-05-15T05:14:21.092Z,21.60
2018-05-15T05:16:48.438Z,20.17
2018-05-15T05:19:15.824Z,16.60
2018-05-15T05:21:43.177Z,17.37
2018-05-15T05:24:10.550Z,17.47
2018-05-15T05:26:37.911Z,20.30
2018-05-15T05:29:05.294Z,21.73
2018-05-15T05:31:32.736Z,23.63
2018-05-15T05:34:00.100Z,17.63
2018-05-15T05:36:27.487Z,21.07
2018-05-15T05:38:54.873Z,17.70
2018-05-15T05:41:22.293Z,21.13
2018-05-15T05:43:49.650Z,18.67
2018-05-15T05:46:17.076Z,18.37
2018-05-15T05:48:44.439Z,21.67
2018-05-15T05:51:11.793Z,21.43
2018-05-15T05:53:39.198Z,19.63
2018-05-15T05:56:06.598Z,19.90
2018-05-15T05:58:33.979Z,19.33
2018-05-15T06:01:01.377Z,17.40
2018-05-15T06:03:28.737Z,23.33
2018-05-15T06:05:56.127Z,20.40
2018-05-15T06:08:23.560Z,19.93
2018-05-15T06:10:50.948Z,17.37
2018-05-15T06:13:18.332Z,19.70
2018-05-15T06:15:45.824Z,16.87
2018-05-15T06:18:13.192Z,25.87
2018-05-15T06:20:40.627Z,29.77
2018-05-15T06:23:08.003Z,20.03
2018-05-15T06:25:35.384Z,22.00
2018-05-15T06:28:02.731Z,18.50
2018-05-15T06:30:30.142Z,19.97
2018-05-15T06:32:57.559Z,18.60
2018-05-15T06:35:24.956Z,23.17
2018-05-15T06:37:52.321Z,19.20
2018-05-15T06:40:19.760Z,22.87
2018-05-15T06:42:47.139Z,20.70
2018-05-15T06:45:14.493Z,19.57
2018-05-15T06:47:41.862Z,20.83
2018-05-15T06:50:09.215Z,21.80
2018-05-15T06:52:36.592Z,23.53
2018-05-15T06:55:03.995Z,23.53
2018-05-15T06:57:31.354Z,23.13
2018-05-15T06:59:58.771Z,19.90
2018-05-15T07:02:26.171Z,20.37
2018-05-15T07:04:53.569Z,21.97
2018-05-15T07:07:20.922Z,22.90
2018-05-15T07:09:48.306Z,23.50
2018-05-15T07:12:15.738Z,17.73
2018-05-15T07:14:43.172Z,25.60
2018-05-15T07:17:10.591Z,17.57
2018-05-15T07:19:37.993Z,20.43
2018-05-15T07:22:05.399Z,19.23
2018-05-15T07:24:32.783Z,19.50
2018-05-15T07:27:00.208Z,22.57
2018-05-15T07:29:27.611Z,20.03
2018-05-15T07:31:55.010Z,29.77
2018-05-15T07:34:22.382Z,17.57
2018-05-15T07:36:49.768Z,15.87
2018-05-15T07:39:17.206Z,17.40
2018-05-15T07:41:44.696Z,16.57
2018-05-15T07:44:12.059Z,15.37
2018-05-15T07:46:39.452Z,18.27
2018-05-15T07:49:06.873Z,16.60
2018-05-15T07:51:34.272Z,19.60
2018-05-15T07:54:01.773Z,17.57
2018-05-15T07:56:29.186Z,25.07
2018-05-15T07:58:56.585Z,20.17
2018-05-15T08:01:24.017Z,18.83
2018-05-15T08:03:51.375Z,29.10
2018-05-15T08:06:18.729Z,26.37
2018-05-15T08:08:46.751Z,18.07
2018-05-15T08:11:14.110Z,24.00
2018-05-15T08:13:41.487Z,21.17
2018-05-15T08:16:08.843Z,18.83
2018-05-15T08:18:36.264Z,17.03
2018-05-15T08:21:03.626Z,24.33
2018-05-15T08:23:30.992Z,16.03
2018-05-15T08:25:58.358Z,13.00
2018-05-15T08:28:25.706Z,18.00
2018-05-15T08:30:53.089Z,20.13
2018-05-15T08:33:20.505Z,15.47
2018-05-15T08:35:47.917Z,16.23
2018-05-15T08:38:15.278Z,16.03
2018-05-15T08:40:42.674Z,17.70
2018-05-15T08:43:10.067Z,17.50
2018-05-15T08:45:37.455Z,16.60
2018-05-15T08:48:04.810Z,15.23
2018-05-15T08:50:32.203Z,16.17
2018-05-15T08:52:59.633Z,14.93
2018-05-15T08:55:27.046Z,14.70
2018-05-15T08:57:54.422Z,13.73
2018-05-15T09:00:21.779Z,15.23
2018-05-15T09:02:49.181Z,14.20
2018-05-15T09:05:16.581Z,16.47
2018-05-15T09:07:43.952Z,11.57
2018-05-15T09:10:11.331Z,12.33
2018-05-15T09:12:38.739Z,13.07
2018-05-15T09:15:06.095Z,15.20
2018-05-15T09:17:33.504Z,16.33
2018-05-15T09:20:00.914Z,17.80
2018-05-15T09:22:28.762Z,28.80
2018-05-15T09:24:56.223Z,18.83
2018-05-15T09:27:23.574Z,13.67
2018-05-15T09:29:50.967Z,11.67
2018-05-15T09:32:18.347Z,13.03
2018-05-15T09:34:45.703Z,17.30
2018-05-15T09:37:13.085Z,14.03
2018-05-15T09:39:40.464Z,13.10
2018-05-15T09:42:07.838Z,12.23
2018-05-15T09:44:35.217Z,11.83
2018-05-15T09:47:02.655Z,14.13
2018-05-15T09:49:30.027Z,10.27
2018-05-15T09:51:57.385Z,10.60
2018-05-15T09:54:24.780Z,11.37
2018-05-15T09:56:52.157Z,8.87
2018-05-15T09:59:19.538Z,13.20
2018-05-15T10:01:46.911Z,10.43
2018-05-15T10:04:14.258Z,12.23
2018-05-15T10:06:41.629Z,14.87
2018-05-15T10:09:09.118Z,10.50
2018-05-15T10:11:36.528Z,8.40
2018-05-15T10:14:04.108Z,14.30
2018-05-15T10:16:31.409Z,9.30
2018-05-15T10:18:58.786Z,9.00
2018-05-15T10:21:26.142Z,10.53
2018-05-15T10:23:53.563Z,15.33
2018-05-15T10:26:21.216Z,13.17
2018-05-15T10:28:48.853Z,8.53
2018-05-15T10:31:16.284Z,13.33
2018-05-15T10:33:43.631Z,10.50
2018-05-15T10:36:11.068Z,13.33
2018-05-15T10:38:38.438Z,8.60
2018-05-15T10:41:05.815Z,12.53
2018-05-15T10:43:33.228Z,9.57
2018-05-15T10:46:00.631Z,14.20
2018-05-15T10:48:28.003Z,9.00
2018-05-15T10:50:55.342Z,10.60
2018-05-15T10:53:22.767Z,11.83
2018-05-15T10:55:50.139Z,9.30
2018-05-15T10:58:17.512Z,12.90
2018-05-15T11:00:44.887Z,17.33
2018-05-15T11:03:12.238Z,16.43
2018-05-15T11:05:39.636Z,9.87
2018-05-15T11:08:06.986Z,14.10
2018-05-15T11:10:34.485Z,10.70
2018-05-15T11:13:01.874Z,9.57
2018-05-15T11:15:29.327Z,8.53
2018-05-15T11:17:56.713Z,9.10
2018-05-15T11:20:29.940Z,10.27
2018-05-15T11:23:03.327Z,11.27
2018-05-15T11:25:30.670Z,14.10
2018-05-15T11:27:58.083Z,10.63
2018-05-15T11:30:25.536Z,9.47
2018-05-15T11:32:52.907Z,9.50
2018-05-15T11:35:20.276Z,8.97
2018-05-15T11:37:47.652Z,7.27
2018-05-15T11:40:15.033Z,11.60
2018-05-15T11:42:42.434Z,10.40
2018-05-15T11:45:09.855Z,11.13
2018-05-15T11:47:37.396Z,8.40
2018-05-15T11:50:05.801Z,8.07
2018-05-15T11:52:32.677Z,7.83
2018-05-15T11:54:59.806Z,10.93
2018-05-15T11:57:27.227Z,11.30
2018-05-15T11:59:54.691Z,8.50
2018-05-15T12:02:22.015Z,10.00
2018-05-15T12:04:49.374Z,9.00
2018-05-15T12:07:16.786Z,10.80
2018-05-15T12:09:44.189Z,10.77
2018-05-15T12:12:11.536Z,10.27
2018-05-15T12:14:39.015Z,8.70
2018-05-15T12:17:06.433Z,10.00
2018-05-15T12:19:33.779Z,13.13
2018-05-15T12:22:01.172Z,7.00
2018-05-15T12:24:28.524Z,10.37
2018-05-15T12:26:55.963Z,11.33
2018-05-15T12:29:23.315Z,10.73
2018-05-15T12:31:50.727Z,13.27
2018-05-15T12:34:18.206Z,16.87
2018-05-15T12:36:45.554Z,8.57
2018-05-15T12:39:12.955Z,10.17
2018-05-15T12:41:40.379Z,11.97
2018-05-15T12:44:07.738Z,9.70
2018-05-15T12:46:35.161Z,9.53
2018-05-15T12:49:06.339Z,8.90
2018-05-15T12:51:33.687Z,8.70
2018-05-15T12:54:01.092Z,7.27
2018-05-15T12:56:28.479Z,9.50
2018-05-15T12:58:55.831Z,10.57
2018-05-15T13:01:23.211Z,8.43
2018-05-15T13:03:50.553Z,12.73
2018-05-15T13:06:17.921Z,9.53
2018-05-15T13:08:45.349Z,8.90
2018-05-15T13:11:12.705Z,8.50
2018-05-15T13:13:40.072Z,7.10
2018-05-15T13:16:07.419Z,6.90
2018-05-15T13:18:34.944Z,7.00
2018-05-15T13:21:02.251Z,7.10
2018-05-15T13:23:29.633Z,6.60
2018-05-15T13:25:57.060Z,7.10
2018-05-15T13:28:24.405Z,6.17
2018-05-15T13:30:51.783Z,10.50
2018-05-15T13:33:19.192Z,4.40
2018-05-15T13:35:46.585Z,5.07
2018-05-15T13:38:13.923Z,5.13
2018-05-15T13:40:41.288Z,9.17
2018-05-15T13:43:08.704Z,5.33
2018-05-15T13:45:36.122Z,9.30
2018-05-15T13:48:03.513Z,6.10
2018-05-15T13:50:31.005Z,6.30
2018-05-15T13:52:58.352Z,7.60
2018-05-15T13:55:25.761Z,12.03
2018-05-15T13:57:53.106Z,9.00
2018-05-15T14:00:20.484Z,8.70
2018-05-15T14:02:47.904Z,12.30
2018-05-15T14:05:15.331Z,12.93
2018-05-15T14:07:42.707Z,11.60
2018-05-15T14:10:10.502Z,17.43
2018-05-15T14:12:37.921Z,12.23
2018-05-15T14:15:05.278Z,13.90
2018-05-15T14:17:32.691Z,13.10
2018-05-15T14:20:00.039Z,10.27
2018-05-15T14:22:27.539Z,9.20
2018-05-15T14:24:54.906Z,6.83
2018-05-15T14:27:22.280Z,13.00
2018-05-15T14:29:49.717Z,9.23
2018-05-15T14:32:17.159Z,8.53
2018-05-15T14:34:44.547Z,7.30
2018-05-15T14:37:11.916Z,13.27
2018-05-15T14:39:39.253Z,11.23
2018-05-15T14:42:12.604Z,7.37
2018-05-15T14:44:39.943Z,5.80
2018-05-15T14:47:07.326Z,7.20
2018-05-15T14:49:34.668Z,8.73
2018-05-15T14:52:02.004Z,3.67
2018-05-15T14:54:29.403Z,5.43
2018-05-15T14:56:56.820Z,8.70
2018-05-15T14:59:24.220Z,6.30
2018-05-15T15:01:51.699Z,6.00
2018-05-15T15:04:19.095Z,6.90
2018-05-15T15:06:46.511Z,6.53
2018-05-15T15:09:13.891Z,12.30
2018-05-15T15:11:41.292Z,7.13
2018-05-15T15:14:08.706Z,9.43
2018-05-15T15:16:36.175Z,6.20
2018-05-15T15:19:03.583Z,6.90
2018-05-15T15:21:30.983Z,8.00
2018-05-15T15:23:58.350Z,7.73
2018-05-15T15:26:26.664Z,8.53
2018-05-15T15:28:54.060Z,7.10
2018-05-15T15:31:21.557Z,13.73
2018-05-15T15:33:48.969Z,10.10
2018-05-15T15:36:16.346Z,9.80
2018-05-15T15:38:43.743Z,5.10
2018-05-15T15:41:11.090Z,7.03
2018-05-15T15:43:38.484Z,8.33
2018-05-15T15:46:05.873Z,10.13
2018-05-15T15:48:33.284Z,7.70
2018-05-15T15:51:00.650Z,7.20
2018-05-15T15:53:28.011Z,6.80
2018-05-15T15:55:55.475Z,8.43
2018-05-15T15:58:22.820Z,6.70
2018-05-15T16:00:50.154Z,7.33
2018-05-15T16:03:17.532Z,5.97
2018-05-15T16:05:44.913Z,8.37
2018-05-15T16:08:12.271Z,12.70
2018-05-15T16:10:40.534Z,10.97
2018-05-15T16:13:07.897Z,9.10
2018-05-15T16:15:35.380Z,8.83
2018-05-15T16:18:02.678Z,9.70
2018-05-15T16:20:30.046Z,10.50
2018-05-15T16:22:57.455Z,7.40
2018-05-15T16:25:24.862Z,8.50
2018-05-15T16:27:52.213Z,7.77
2018-05-15T16:30:19.592Z,10.10
2018-05-15T16:32:47.015Z,8.87
2018-05-15T16:35:14.351Z,11.17
2018-05-15T16:37:41.816Z,13.40
2018-05-15T16:40:09.173Z,12.57
2018-05-15T16:42:36.588Z,13.13
2018-05-15T16:45:03.983Z,11.67
2018-05-15T16:47:31.924Z,9.63
2018-05-15T16:49:59.259Z,11.00
2018-05-15T16:52:26.664Z,8.50
2018-05-15T16:54:54.048Z,10.70
2018-05-15T16:57:21.464Z,11.07
2018-05-15T16:59:48.835Z,12.20
2018-05-15T17:02:16.215Z,15.17
2018-05-15T17:04:43.604Z,13.60
2018-05-15T17:07:11.048Z,11.57
2018-05-15T17:09:38.457Z,11.87
2018-05-15T17:12:05.889Z,11.33
2018-05-15T17:14:33.291Z,11.27
2018-05-15T17:17:00.667Z,12.60
2018-05-15T17:19:28.244Z,11.83
2018-05-15T17:21:55.665Z,12.87
2018-05-15T17:24:23.035Z,15.47
2018-05-15T17:26:50.509Z,13.07
2018-05-15T17:29:17.951Z,13.33
2018-05-15T17:31:45.361Z,12.33
2018-05-15T17:34:12.718Z,16.23
2018-05-15T17:36:40.085Z,14.87
2018-05-15T17:39:08.098Z,15.47
2018-05-15T17:41:35.476Z,14.83
2018-05-15T17:44:02.836Z,14.70
2018-05-15T17:46:30.209Z,16.27
2018-05-15T17:48:57.552Z,15.80
2018-05-15T17:51:24.940Z,14.03
2018-05-15T17:53:52.313Z,16.53
2018-05-15T17:56:19.742Z,15.97
2018-05-15T17:58:47.245Z,18.77
2018-05-15T18:01:14.616Z,14.27
2018-05-15T18:03:42.030Z,15.73
2018-05-15T18:06:09.413Z,13.43
2018-05-15T18:08:36.880Z,13.40
2018-05-15T18:11:04.248Z,12.97
2018-05-15T18:13:31.729Z,10.93
2018-05-15T18:15:59.136Z,13.17
2018-05-15T18:18:26.477Z,11.70
2018-05-15T18:20:53.901Z,10.33
2018-05-15T18:23:21.274Z,13.77
2018-05-15T18:25:48.655Z,14.73
2018-05-15T18:28:16.053Z,14.27
2018-05-15T18:30:43.408Z,9.97
2018-05-15T18:33:10.930Z,11.33
2018-05-15T18:35:38.313Z,13.57
2018-05-15T18:38:05.698Z,13.50
2018-05-15T18:40:33.299Z,12.60
2018-05-15T18:43:00.681Z,17.43
2018-05-15T18:45:28.092Z,11.63
2018-05-15T18:47:55.481Z,13.10
2018-05-15T18:50:22.872Z,13.83
2018-05-15T18:52:50.266Z,16.30
2018-05-15T18:55:17.650Z,15.13
2018-05-15T18:57:45.038Z,13.20
2018-05-15T19:00:12.399Z,13.13
2018-05-15T19:02:39.797Z,13.33
2018-05-15T19:05:07.159Z,12.23
2018-05-15T19:07:34.647Z,14.10
2018-05-15T19:10:02.069Z,13.20
2018-05-15T19:12:29.524Z,12.60
2018-05-15T19:14:57.065Z,12.97
2018-05-15T19:17:24.438Z,12.80
2018-05-15T19:19:51.896Z,12.00
2018-05-15T19:22:19.296Z,14.30
2018-05-15T19:24:46.654Z,12.43
2018-05-15T19:27:14.144Z,14.30
2018-05-15T19:29:41.518Z,14.43
2018-05-15T19:32:14.655Z,16.67
2018-05-15T19:34:47.903Z,17.90
2018-05-15T19:37:15.396Z,17.77
2018-05-15T19:39:43.752Z,15.83
2018-05-15T19:42:11.125Z,16.27
2018-05-15T19:44:38.535Z,16.47
2018-05-15T19:47:05.927Z,16.03
2018-05-15T19:49:33.355Z,18.60
2018-05-15T19:52:00.751Z,17.30
2018-05-15T19:54:28.175Z,17.90
2018-05-15T19:56:55.675Z,19.40
2018-05-15T19:59:23.123Z,17.57
2018-05-15T20:01:50.586Z,19.07
2018-05-15T20:04:18.039Z,17.93
2018-05-15T20:06:45.565Z,19.57
2018-05-15T20:09:13.101Z,23.90
2018-05-15T20:11:40.682Z,17.80
2018-05-15T20:14:08.177Z,18.57
2018-05-15T20:16:35.617Z,23.33
2018-05-15T20:19:03.087Z,22.00
2018-05-15T20:21:30.546Z,17.90
2018-05-15T20:23:57.949Z,16.97
2018-05-15T20:26:25.465Z,19.17
2018-05-15T20:28:52.839Z,22.43
2018-05-15T20:31:20.204Z,23.10
2018-05-15T20:33:47.726Z,19.97
2018-05-15T20:36:15.094Z,22.30
2018-05-15T20:38:42.451Z,22.40
2018-05-15T20:41:09.842Z,27.37
2018-05-15T20:43:37.262Z,22.57
2018-05-15T20:46:04.684Z,22.30
2018-05-15T20:48:32.074Z,21.27
2018-05-15T20:50:59.495Z,20.17
2018-05-15T20:53:26.864Z,20.97
2018-05-15T20:55:54.253Z,21.27
2018-05-15T20:58:21.665Z,21.00
2018-05-15T21:00:49.019Z,24.07
2018-05-15T21:03:16.526Z,25.37
2018-05-15T21:05:43.903Z,22.70
2018-05-15T21:08:11.317Z,21.87
2018-05-15T21:10:38.752Z,23.63
2018-05-15T21:13:06.107Z,23.10
2018-05-15T21:15:33.526Z,22.93
2018-05-15T21:18:00.960Z,24.77
2018-05-15T21:20:28.484Z,21.50
2018-05-15T21:22:55.842Z,22.80
2018-05-15T21:25:23.256Z,24.87
2018-05-15T21:27:50.611Z,26.37
2018-05-15T21:30:18.135Z,25.03
2018-05-15T21:32:45.560Z,24.37
2018-05-15T21:35:12.994Z,33.83
2018-05-15T21:37:40.430Z,30.30
2018-05-15T21:40:07.816Z,27.67
2018-05-15T21:42:35.288Z,26.43
2018-05-15T21:45:02.673Z,29.40
2018-05-15T21:47:30.176Z,27.47
2018-05-15T21:49:57.534Z,27.80
2018-05-15T21:52:24.916Z,29.53
2018-05-15T21:54:52.310Z,29.13
2018-05-15T21:57:19.684Z,30.10
2018-05-15T21:59:47.066Z,28.87
2018-05-15T22:02:14.483Z,30.50
2018-05-15T22:04:41.886Z,32.33
2018-05-15T22:07:09.239Z,31.30
2018-05-15T22:09:36.589Z,26.87
2018-05-15T22:12:09.996Z,28.97
2018-05-15T22:14:43.303Z,33.87
2018-05-15T22:17:16.547Z,29.90
2018-05-15T22:19:49.755Z,32.80
2018-05-15T22:22:16.931Z,31.53
2018-05-15T22:24:44.306Z,36.47
2018-05-15T22:27:11.692Z,34.70
2018-05-15T22:29:39.128Z,34.30
2018-05-15T22:32:06.564Z,30.00
2018-05-15T22:34:33.947Z,36.40
2018-05-15T22:37:01.307Z,38.87
2018-05-15T22:39:28.679Z,32.53
2018-05-15T22:41:56.138Z,34.90
2018-05-15T22:44:23.520Z,36.70
2018-05-15T22:46:50.907Z,36.60
2018-05-15T22:49:18.297Z,36.33
2018-05-15T22:51:45.683Z,36.03
2018-05-15T22:54:13.068Z,39.73
2018-05-15T22:56:40.476Z,40.37
2018-05-15T22:59:07.870Z,35.80
2018-05-15T23:01:35.222Z,39.07
2018-05-15T23:04:02.607Z,38.10
2018-05-15T23:06:30.058Z,38.50
2018-05-15T23:08:57.449Z,36.07
2018-05-15T23:11:24.884Z,36.90
2018-05-15T23:13:52.240Z,40.20
2018-05-15T23:16:19.615Z,41.73
2018-05-15T23:18:46.965Z,38.40
2018-05-15T23:21:14.368Z,43.20
2018-05-15T23:23:41.728Z,46.90
2018-05-15T23:26:09.157Z,38.13
2018-05-15T23:28:36.549Z,42.47
2018-05-15T23:31:03.912Z,40.77
2018-05-15T23:33:31.284Z,38.37
2018-05-15T23:35:58.643Z,38.63
2018-05-15T23:38:26.072Z,38.93
2018-05-15T23:40:53.464Z,40.33
2018-05-15T23:43:20.819Z,42.30
2018-05-15T23:45:48.199Z,42.90
2018-05-15T23:48:15.554Z,40.03
2018-05-15T23:50:42.934Z,41.87
2018-05-15T23:53:10.325Z,49.00
2018-05-15T23:55:37.672Z,40.93
2018-05-15T23:58:05.136Z,41.57
